Portada
METAR-TAF:

METAR-TAF

Aeroports :

Puerto Maldonado, Perú

latitud: 12-38S, longitud: 069-12W, altitud: 265 m

Observació

L'informe es va fer fa 5 hores i 43 minuts, a les 23:00 UTC
Vent calma
Temperatura 22°C
Humitat 100%
Pressió 1011 hPa
Visibilitat 10 km o més
sense núvols per sota de 1500 mi sense presència de cumulonimbus.

METAR: SPTU 152300Z 00000KT CAVOK 22/22 Q1011 RMK BIRD HAZARD RWY 01/19 PP000

Hora: 23:43 (04:43 UTC)

Pronòstic

L'informe es va fer fa 11 hores i 43 minuts, a les 17:00 UTC
Pronòstic vàlid del 15 a les 18 UTC al 16 a les 18 UTC
Vent 5 kt del Sud/Sud-Est
Visibilitat 10 km o més
Cel ennuvolat a una alçada de 2000 ft
Cel ennuvolat a una alçada de 12000 ft
Evolucionant progressivament
l' 15 a les 22 UTC al 15 a les 23 UTC
Escasses núvols a una alçada de 5000 ft

TAF: SPTU 151700Z 1518/1618 15005KT 9999 BKN020 BKN120 TX29/1519Z TN20/1611Z BECMG 1522/1523 FEW050

Observacions i pronòstics meteorològics de més de 4000 aeroports (METAR i TAF).

Les estacions disponibles són els punts grocs i vermells al mapa.

Posi el ratolí al punt desitjat per veure el nom de l'estació.

Feu clic per veure les observacions i els pronòstics meteorològics.

Per canviar el mapa: feu clic els botons verds amb una creu de color negre per apropar; al botó verd amb un guió per allunyar la imatge; o en les fletxes verdes per a mapes adjacents.


METAR-TAF: